createdAt,value
2018-12-13T00:00:58.999Z,22.42
2018-12-13T00:03:27.178Z,21.12
2018-12-13T00:05:55.242Z,22.90
2018-12-13T00:08:23.311Z,21.45
2018-12-13T00:10:51.420Z,32.88
2018-12-13T00:13:19.495Z,21.87
2018-12-13T00:15:47.534Z,28.90
2018-12-13T00:18:15.606Z,23.75
2018-12-13T00:20:43.619Z,23.22
2018-12-13T00:23:11.710Z,31.52
2018-12-13T00:25:39.787Z,26.68
2018-12-13T00:28:07.877Z,26.80
2018-12-13T00:30:35.924Z,24.98
2018-12-13T00:33:04.043Z,27.90
2018-12-13T00:35:32.071Z,29.98
2018-12-13T00:38:00.247Z,29.37
2018-12-13T00:40:28.403Z,26.80
2018-12-13T00:42:56.451Z,30.85
2018-12-13T00:45:24.519Z,31.97
2018-12-13T00:47:52.642Z,29.52
2018-12-13T00:50:20.730Z,31.50
2018-12-13T00:52:48.798Z,28.07
2018-12-13T00:55:16.883Z,31.50
2018-12-13T00:57:45.492Z,27.60
2018-12-13T01:00:13.595Z,27.05
2018-12-13T01:02:41.676Z,29.52
2018-12-13T01:05:09.910Z,29.35
2018-12-13T01:07:38.083Z,27.82
2018-12-13T01:10:06.181Z,28.42
2018-12-13T01:12:34.339Z,30.85
2018-12-13T01:15:02.446Z,25.37
2018-12-13T01:17:30.528Z,28.70
2018-12-13T01:19:58.591Z,33.57
2018-12-13T01:22:26.650Z,26.10
2018-12-13T01:24:54.742Z,30.77
2018-12-13T01:27:22.824Z,33.02
2018-12-13T01:29:50.899Z,35.20
2018-12-13T01:32:18.998Z,30.25
2018-12-13T01:34:47.073Z,33.88
2018-12-13T01:37:15.122Z,35.95
2018-12-13T01:39:43.234Z,32.85
2018-12-13T01:42:11.344Z,32.40
2018-12-13T01:44:39.546Z,34.08
2018-12-13T01:47:07.675Z,38.28
2018-12-13T01:49:35.847Z,36.45
2018-12-13T01:52:03.932Z,32.10
2018-12-13T01:54:31.955Z,37.85
2018-12-13T01:56:59.956Z,36.30
2018-12-13T01:59:28.054Z,35.07
2018-12-13T02:01:56.174Z,41.13
2018-12-13T02:04:24.272Z,34.15
2018-12-13T02:06:58.533Z,42.98
2018-12-13T02:09:22.482Z,41.58
2018-12-13T02:11:50.579Z,40.60
2018-12-13T02:14:18.684Z,42.65
2018-12-13T02:16:46.848Z,46.00
2018-12-13T02:19:14.920Z,44.55
2018-12-13T02:21:43.077Z,39.00
2018-12-13T02:24:11.235Z,42.00
2018-12-13T02:26:39.395Z,43.15
2018-12-13T02:29:07.458Z,42.60
2018-12-13T02:31:35.562Z,41.90
2018-12-13T02:34:03.623Z,46.35
2018-12-13T02:36:31.812Z,42.83
2018-12-13T02:38:59.878Z,41.05
2018-12-13T02:41:28.043Z,47.40
2018-12-13T02:43:56.215Z,43.65
2018-12-13T02:46:24.387Z,40.70
2018-12-13T02:49:02.623Z,46.00
2018-12-13T02:51:30.678Z,42.23
2018-12-13T02:53:58.704Z,41.33
2018-12-13T02:56:26.811Z,45.73
2018-12-13T02:58:54.898Z,45.55
2018-12-13T03:01:23.067Z,45.40
2018-12-13T03:03:51.374Z,52.95
2018-12-13T03:06:19.749Z,46.50
2018-12-13T03:08:47.912Z,46.45
2018-12-13T03:11:15.977Z,44.98
2018-12-13T03:13:44.131Z,42.55
2018-12-13T03:16:12.214Z,44.20
2018-12-13T03:18:40.392Z,46.20
2018-12-13T03:21:08.463Z,43.17
2018-12-13T03:23:36.731Z,42.40
2018-12-13T03:26:04.910Z,41.55
2018-12-13T03:28:33.042Z,47.78
2018-12-13T03:31:01.085Z,42.93
2018-12-13T03:33:29.226Z,44.18
2018-12-13T03:35:57.294Z,44.48
2018-12-13T03:38:25.470Z,43.10
2018-12-13T03:40:53.670Z,47.93
2018-12-13T03:43:22.750Z,39.10
2018-12-13T03:45:50.851Z,45.35
2018-12-13T03:48:18.974Z,44.60
2018-12-13T03:50:47.190Z,41.10
2018-12-13T03:53:15.328Z,44.03
2018-12-13T03:55:43.410Z,46.35
2018-12-13T03:58:11.571Z,40.08
2018-12-13T04:00:39.702Z,45.25
2018-12-13T04:03:07.797Z,40.20
2018-12-13T04:05:35.828Z,37.40
2018-12-13T04:08:04.035Z,41.02
2018-12-13T04:10:32.139Z,37.58
2018-12-13T04:13:00.308Z,42.62
2018-12-13T04:15:28.467Z,38.70
2018-12-13T04:17:56.550Z,43.87
2018-12-13T04:20:24.686Z,40.58
2018-12-13T04:22:52.862Z,38.92
2018-12-13T04:25:20.961Z,45.78
2018-12-13T04:27:49.094Z,37.88
2018-12-13T04:30:17.167Z,52.17
2018-12-13T04:32:45.182Z,35.00
2018-12-13T04:35:13.358Z,34.65
2018-12-13T04:37:41.557Z,36.85
2018-12-13T04:40:09.716Z,33.00
2018-12-13T04:42:37.888Z,37.50
2018-12-13T04:45:06.027Z,33.90
2018-12-13T04:47:34.103Z,30.20
2018-12-13T04:50:02.206Z,33.75
2018-12-13T04:52:30.509Z,34.27
2018-12-13T04:54:58.614Z,31.68
2018-12-13T04:57:26.640Z,35.23
2018-12-13T04:59:54.814Z,29.70
2018-12-13T05:02:22.875Z,34.00
2018-12-13T05:04:50.942Z,25.85
2018-12-13T05:07:19.027Z,27.95
2018-12-13T05:09:47.098Z,27.32
2018-12-13T05:12:16.079Z,26.07
2018-12-13T05:14:44.195Z,25.25
2018-12-13T05:17:12.283Z,25.80
2018-12-13T05:19:40.367Z,24.30
2018-12-13T05:22:08.438Z,27.75
2018-12-13T05:24:36.532Z,33.88
2018-12-13T05:27:04.677Z,30.80
2018-12-13T05:29:32.804Z,27.90
2018-12-13T05:32:00.907Z,27.35
2018-12-13T05:34:29.143Z,26.85
2018-12-13T05:36:57.228Z,29.57
2018-12-13T05:39:26.189Z,27.00
2018-12-13T05:41:54.325Z,27.37
2018-12-13T05:44:22.394Z,25.30
2018-12-13T05:46:50.483Z,23.20
2018-12-13T05:49:18.522Z,25.32
2018-12-13T05:51:46.603Z,23.47
2018-12-13T05:54:14.624Z,24.02
2018-12-13T05:56:42.727Z,27.32
2018-12-13T05:59:10.778Z,23.60
2018-12-13T06:01:38.887Z,28.05
2018-12-13T06:04:06.921Z,30.40
2018-12-13T06:06:34.926Z,26.12
2018-12-13T06:09:03.383Z,28.07
2018-12-13T06:11:31.460Z,25.15
2018-12-13T06:13:59.547Z,25.68
2018-12-13T06:16:27.599Z,24.82
2018-12-13T06:18:55.669Z,24.63
2018-12-13T06:21:23.766Z,24.43
2018-12-13T06:23:51.870Z,28.67
2018-12-13T06:26:20.094Z,33.70
2018-12-13T06:28:48.163Z,28.23
2018-12-13T06:31:16.340Z,23.22
2018-12-13T06:33:44.514Z,25.90
2018-12-13T06:36:12.595Z,35.35
2018-12-13T06:38:41.414Z,24.25
2018-12-13T06:41:09.495Z,22.73
2018-12-13T06:43:37.595Z,24.82
2018-12-13T06:46:05.695Z,30.23
2018-12-13T06:48:33.862Z,27.27
2018-12-13T06:51:01.959Z,29.05
2018-12-13T06:53:30.050Z,30.35
2018-12-13T06:55:58.131Z,24.47
2018-12-13T06:58:26.228Z,28.50
2018-12-13T07:00:54.229Z,29.37
2018-12-13T07:03:22.390Z,30.82
2018-12-13T07:05:50.568Z,31.70
2018-12-13T07:08:18.755Z,36.45
2018-12-13T07:10:46.901Z,30.80
2018-12-13T07:13:14.977Z,30.57
2018-12-13T07:15:43.064Z,26.45
2018-12-13T07:18:11.160Z,28.77
2018-12-13T07:20:39.257Z,33.13
2018-12-13T07:23:07.362Z,26.33
2018-12-13T07:25:36.890Z,26.93
2018-12-13T07:28:04.965Z,27.65
2018-12-13T07:30:33.008Z,24.50
2018-12-13T07:33:01.103Z,25.57
2018-12-13T07:35:29.250Z,31.82
2018-12-13T07:37:57.335Z,23.38
2018-12-13T07:40:25.396Z,23.38
2018-12-13T07:42:54.087Z,23.67
2018-12-13T07:45:22.237Z,21.73
2018-12-13T07:47:50.328Z,25.00
2018-12-13T07:50:18.339Z,26.77
2018-12-13T07:52:46.428Z,24.13
2018-12-13T07:55:14.440Z,22.30
2018-12-13T07:57:42.519Z,23.60
2018-12-13T08:00:11.217Z,23.57
2018-12-13T08:02:39.290Z,22.40
2018-12-13T08:05:07.832Z,21.60
2018-12-13T08:07:35.924Z,21.42
2018-12-13T08:10:04.280Z,19.98
2018-12-13T08:12:32.399Z,22.80
2018-12-13T08:15:00.478Z,20.37
2018-12-13T08:17:28.550Z,18.90
2018-12-13T08:19:56.630Z,21.65
2018-12-13T08:22:24.806Z,19.65
2018-12-13T08:24:52.908Z,20.88
2018-12-13T08:27:21.026Z,17.17
2018-12-13T08:29:49.090Z,17.92
2018-12-13T08:32:17.183Z,16.12
2018-12-13T08:34:45.279Z,21.33
2018-12-13T08:37:13.430Z,23.33
2018-12-13T08:39:41.603Z,18.17
2018-12-13T08:42:09.859Z,19.55
2018-12-13T08:44:37.934Z,25.68
2018-12-13T08:47:06.134Z,20.35
2018-12-13T08:49:34.242Z,21.95
2018-12-13T08:52:02.365Z,19.95
2018-12-13T08:54:30.504Z,18.82
2018-12-13T08:56:58.600Z,20.70
2018-12-13T08:59:26.671Z,19.25
2018-12-13T09:01:54.762Z,17.75
2018-12-13T09:04:22.865Z,18.40
2018-12-13T09:06:50.984Z,20.20
2018-12-13T09:09:19.039Z,18.52
2018-12-13T09:11:47.167Z,16.15
2018-12-13T09:14:15.299Z,15.77
2018-12-13T09:16:43.484Z,19.92
2018-12-13T09:19:11.666Z,18.92
2018-12-13T09:21:39.748Z,17.85
2018-12-13T09:24:07.925Z,18.52
2018-12-13T09:26:36.019Z,16.70
2018-12-13T09:29:04.074Z,16.05
2018-12-13T09:31:32.099Z,19.50
2018-12-13T09:34:00.438Z,16.20
2018-12-13T09:36:28.617Z,19.15
2018-12-13T09:38:56.787Z,18.23
2018-12-13T09:41:24.990Z,17.70
2018-12-13T09:43:53.057Z,14.65
2018-12-13T09:46:21.228Z,15.23
2018-12-13T09:48:49.463Z,15.18
2018-12-13T09:51:17.758Z,13.50
2018-12-13T09:53:45.950Z,18.20
2018-12-13T09:56:14.329Z,20.75
2018-12-13T09:58:42.429Z,15.03
2018-12-13T10:01:10.550Z,19.75
2018-12-13T10:03:38.635Z,18.50
2018-12-13T10:06:06.763Z,15.60
2018-12-13T10:08:34.848Z,15.13
2018-12-13T10:11:02.981Z,14.70
2018-12-13T10:13:31.041Z,14.85
2018-12-13T10:15:59.236Z,15.15
2018-12-13T10:18:27.402Z,16.00
2018-12-13T10:20:55.474Z,15.90
2018-12-13T10:23:23.562Z,14.77
2018-12-13T10:25:51.653Z,15.80
2018-12-13T10:28:19.754Z,15.60
2018-12-13T10:30:47.836Z,13.28
2018-12-13T10:33:15.911Z,14.60
2018-12-13T10:35:44.026Z,14.30
2018-12-13T10:38:12.064Z,15.30
2018-12-13T10:40:40.127Z,13.85
2018-12-13T10:43:08.285Z,16.37
2018-12-13T10:45:36.395Z,13.00
2018-12-13T10:48:04.467Z,12.43
2018-12-13T10:50:32.494Z,11.10
2018-12-13T10:53:00.661Z,12.68
2018-12-13T10:55:28.731Z,9.25
2018-12-13T10:57:56.808Z,10.43
2018-12-13T11:01:30.227Z,12.50
2018-12-13T11:03:58.383Z,14.47
2018-12-13T11:06:26.398Z,13.80
2018-12-13T11:08:59.461Z,12.93
2018-12-13T11:11:24.518Z,13.80
2018-12-13T11:13:52.843Z,14.40
2018-12-13T11:16:20.915Z,11.80
2018-12-13T11:18:49.010Z,13.97
2018-12-13T11:21:17.416Z,20.27
2018-12-13T11:23:45.822Z,30.20
2018-12-13T11:26:14.027Z,20.17
2018-12-13T11:29:56.745Z,16.27
2018-12-13T11:32:25.231Z,16.50
2018-12-13T11:34:53.418Z,19.03
2018-12-13T11:37:21.592Z,14.13
2018-12-13T11:39:49.723Z,12.55
2018-12-13T11:42:17.794Z,18.77
2018-12-13T11:44:45.952Z,16.82
2018-12-13T11:47:14.022Z,13.83
2018-12-13T11:49:42.137Z,13.93
2018-12-13T11:52:10.284Z,24.77
2018-12-13T11:54:43.835Z,15.83
2018-12-13T11:57:12.271Z,17.92
2018-12-13T11:59:40.339Z,17.70
2018-12-13T12:02:08.462Z,14.97
2018-12-13T12:04:36.567Z,16.50
2018-12-13T12:07:04.626Z,21.50
2018-12-13T12:09:32.788Z,21.60
2018-12-13T12:12:00.859Z,19.67
2018-12-13T12:14:28.947Z,19.90
2018-12-13T12:16:57.026Z,27.97
2018-12-13T12:19:25.100Z,15.83
2018-12-13T12:21:53.166Z,14.97
2018-12-13T12:24:21.208Z,14.57
2018-12-13T12:26:49.251Z,16.97
2018-12-13T12:29:17.330Z,15.93
2018-12-13T12:31:45.398Z,14.37
2018-12-13T12:34:13.530Z,13.97
2018-12-13T12:36:41.555Z,14.50
2018-12-13T12:39:09.573Z,14.50
2018-12-13T12:41:37.643Z,14.60
2018-12-13T12:44:05.722Z,15.90
2018-12-13T12:46:33.766Z,20.50
2018-12-13T12:49:01.828Z,17.40
2018-12-13T12:51:29.879Z,15.53
2018-12-13T12:53:57.994Z,16.70
2018-12-13T12:56:26.027Z,17.67
2018-12-13T12:58:54.089Z,15.60
2018-12-13T13:01:22.145Z,17.80
2018-12-13T13:03:50.272Z,10.53
2018-12-13T13:06:18.352Z,12.73
2018-12-13T13:08:46.382Z,14.30
2018-12-13T13:11:14.450Z,15.05
2018-12-13T13:13:42.533Z,16.53
2018-12-13T13:16:10.615Z,19.90
2018-12-13T13:18:39.129Z,18.57
2018-12-13T13:21:07.431Z,20.65
2018-12-13T13:23:35.476Z,19.10
2018-12-13T13:26:03.528Z,16.17
2018-12-13T13:28:31.594Z,15.80
2018-12-13T13:30:59.746Z,15.13
2018-12-13T13:33:27.834Z,17.13
2018-12-13T13:35:55.992Z,15.70
2018-12-13T13:38:24.146Z,18.87
2018-12-13T13:40:52.265Z,18.37
2018-12-13T13:43:20.332Z,20.87
2018-12-13T13:45:48.402Z,18.25
2018-12-13T13:48:16.480Z,17.30
2018-12-13T13:50:44.614Z,15.08
2018-12-13T13:53:12.657Z,21.90
2018-12-13T13:55:40.735Z,23.80
2018-12-13T13:58:08.795Z,14.87
2018-12-13T14:00:36.898Z,13.57
2018-12-13T14:03:04.994Z,18.20
2018-12-13T14:05:33.211Z,12.40
2018-12-13T14:08:01.331Z,17.17
2018-12-13T14:10:29.411Z,20.03
2018-12-13T14:12:57.451Z,18.92
2018-12-13T14:15:25.555Z,18.87
2018-12-13T14:17:53.615Z,15.97
2018-12-13T14:20:21.673Z,14.33
2018-12-13T14:22:50.007Z,13.70
2018-12-13T14:25:18.122Z,16.10
2018-12-13T14:27:46.266Z,17.40
2018-12-13T14:30:14.343Z,14.77
2018-12-13T14:32:42.409Z,18.23
2018-12-13T14:35:10.591Z,16.30
2018-12-13T14:37:38.663Z,17.10
2018-12-13T14:40:06.755Z,14.83
2018-12-13T14:42:34.834Z,18.40
2018-12-13T14:45:03.013Z,15.37
2018-12-13T14:47:31.093Z,18.10
2018-12-13T14:49:59.159Z,13.60
2018-12-13T14:52:27.239Z,17.50
2018-12-13T14:54:55.318Z,18.63
2018-12-13T14:57:23.498Z,18.00
2018-12-13T14:59:51.608Z,18.77
2018-12-13T15:02:19.703Z,18.87
2018-12-13T15:04:47.781Z,13.97
2018-12-13T15:07:15.877Z,19.03
2018-12-13T15:09:44.075Z,16.80
2018-12-13T15:12:12.172Z,16.80
2018-12-13T15:14:40.240Z,18.00
2018-12-13T15:17:08.467Z,18.70
2018-12-13T15:19:36.527Z,19.23
2018-12-13T15:22:04.623Z,20.90
2018-12-13T15:24:32.635Z,30.02
2018-12-13T15:27:00.722Z,16.17
2018-12-13T15:29:28.691Z,19.25
2018-12-13T15:31:59.511Z,17.95
2018-12-13T15:34:26.901Z,20.68
2018-12-13T15:36:54.970Z,14.55
2018-12-13T15:39:23.027Z,17.43
2018-12-13T15:41:51.202Z,24.70
2018-12-13T15:44:19.364Z,19.10
2018-12-13T15:46:47.438Z,28.40
2018-12-13T15:49:15.531Z,32.47
2018-12-13T15:51:43.699Z,21.67
2018-12-13T15:54:11.809Z,19.00
2018-12-13T15:56:39.936Z,23.83
2018-12-13T15:59:08.113Z,22.60
2018-12-13T16:01:36.199Z,20.65
2018-12-13T16:04:04.270Z,20.93
2018-12-13T16:06:32.395Z,23.07
2018-12-13T16:09:00.439Z,25.53
2018-12-13T16:11:28.547Z,30.12
2018-12-13T16:13:56.647Z,21.65
2018-12-13T16:16:24.731Z,19.25
2018-12-13T16:18:52.806Z,22.40
2018-12-13T16:21:20.895Z,21.52
2018-12-13T16:23:49.087Z,17.65
2018-12-13T16:26:17.194Z,15.97
2018-12-13T16:28:45.329Z,19.82
2018-12-13T16:31:13.367Z,18.07
2018-12-13T16:33:41.522Z,30.05
2018-12-13T16:36:09.606Z,16.60
2018-12-13T16:38:37.779Z,18.57
2018-12-13T16:41:05.895Z,24.63
2018-12-13T16:43:34.060Z,16.87
2018-12-13T16:46:02.230Z,18.02
2018-12-13T16:48:30.368Z,19.15
2018-12-13T16:50:58.674Z,21.15
2018-12-13T16:53:26.969Z,17.35
2018-12-13T16:55:55.181Z,19.90
2018-12-13T16:58:23.277Z,19.92
2018-12-13T17:00:51.411Z,24.23
2018-12-13T17:03:39.060Z,24.25
2018-12-13T17:06:07.150Z,26.40
2018-12-13T17:08:35.365Z,22.50
2018-12-13T17:11:03.865Z,22.60
2018-12-13T17:13:32.043Z,24.10
2018-12-13T17:16:00.182Z,25.08
2018-12-13T17:18:28.329Z,28.83
2018-12-13T17:20:56.437Z,27.27
2018-12-13T17:23:24.571Z,30.62
2018-12-13T17:25:52.646Z,22.93
2018-12-13T17:28:20.783Z,24.23
2018-12-13T17:30:48.960Z,27.30
2018-12-13T17:33:17.082Z,29.57
2018-12-13T17:35:45.156Z,29.70
2018-12-13T17:38:13.274Z,27.20
2018-12-13T17:40:41.398Z,30.17
2018-12-13T17:43:09.501Z,30.57
2018-12-13T17:45:37.648Z,23.65
2018-12-13T17:48:05.771Z,25.43
2018-12-13T17:50:33.912Z,28.55
2018-12-13T17:53:02.083Z,25.70
2018-12-13T17:55:30.239Z,28.30
2018-12-13T17:57:58.320Z,23.90
2018-12-13T18:00:26.383Z,25.55
2018-12-13T18:02:54.474Z,27.45
2018-12-13T18:05:22.587Z,24.35
2018-12-13T18:07:50.793Z,31.07
2018-12-13T18:10:18.951Z,24.23
2018-12-13T18:12:47.099Z,28.32
2018-12-13T18:15:15.247Z,24.85
2018-12-13T18:17:43.441Z,23.60
2018-12-13T18:20:11.510Z,25.88
2018-12-13T18:22:39.672Z,24.85
2018-12-13T18:25:07.746Z,26.70
2018-12-13T18:27:35.839Z,28.80
2018-12-13T18:30:04.832Z,24.90
2018-12-13T18:32:32.954Z,26.62
2018-12-13T18:35:01.004Z,27.77
2018-12-13T18:37:29.107Z,22.20
2018-12-13T18:39:57.175Z,26.02
2018-12-13T18:42:25.326Z,26.45
2018-12-13T18:44:53.397Z,28.85
2018-12-13T18:47:21.519Z,29.90
2018-12-13T18:49:49.658Z,26.62
2018-12-13T18:52:17.782Z,24.90
2018-12-13T18:54:45.855Z,27.73
2018-12-13T18:57:14.040Z,28.32
2018-12-13T18:59:42.166Z,25.12
2018-12-13T19:02:10.180Z,30.57
2018-12-13T19:04:38.320Z,26.95
2018-12-13T19:07:06.570Z,30.60
2018-12-13T19:09:34.720Z,28.17
2018-12-13T19:12:02.810Z,27.02
2018-12-13T19:14:30.915Z,24.20
2018-12-13T19:16:59.064Z,29.67
2018-12-13T19:19:27.147Z,25.45
2018-12-13T19:21:55.215Z,28.25
2018-12-13T19:24:23.251Z,26.50
2018-12-13T19:26:51.324Z,26.77
2018-12-13T19:29:19.555Z,33.45
2018-12-13T19:31:47.644Z,29.52
2018-12-13T19:34:15.763Z,28.27
2018-12-13T19:36:43.828Z,29.98
2018-12-13T19:39:11.939Z,31.40
2018-12-13T19:41:40.143Z,32.95
2018-12-13T19:44:08.266Z,30.97
2018-12-13T19:46:36.408Z,28.70
2018-12-13T19:49:04.526Z,27.70
2018-12-13T19:51:32.587Z,24.95
2018-12-13T19:54:00.697Z,33.67
2018-12-13T19:56:28.927Z,34.20
2018-12-13T19:58:57.063Z,32.60
2018-12-13T20:01:25.151Z,29.98
2018-12-13T20:03:53.610Z,30.17
2018-12-13T20:06:21.731Z,29.75
2018-12-13T20:08:49.952Z,27.82
2018-12-13T20:11:18.000Z,35.88
2018-12-13T20:13:46.099Z,29.70
2018-12-13T20:16:14.299Z,28.20
2018-12-13T20:18:42.451Z,37.35
2018-12-13T20:21:10.514Z,30.57
2018-12-13T20:23:38.630Z,32.00
2018-12-13T20:26:06.780Z,25.35
2018-12-13T20:28:34.891Z,30.72
2018-12-13T20:31:02.913Z,29.45
2018-12-13T20:33:31.035Z,38.53
2018-12-13T20:35:59.109Z,42.10
2018-12-13T20:38:27.752Z,31.33
2018-12-13T20:41:01.020Z,32.17
2018-12-13T20:43:25.894Z,32.42
2018-12-13T20:45:53.960Z,32.28
2018-12-13T20:48:22.157Z,31.33
2018-12-13T20:50:50.224Z,33.28
2018-12-13T20:53:18.323Z,29.55
2018-12-13T20:55:46.433Z,34.80
2018-12-13T20:58:14.702Z,32.90
2018-12-13T21:00:42.835Z,34.73
2018-12-13T21:03:11.023Z,32.48
2018-12-13T21:05:39.130Z,33.60
2018-12-13T21:08:09.145Z,38.70
2018-12-13T21:10:38.473Z,33.50
2018-12-13T21:13:06.481Z,33.10
2018-12-13T21:15:34.587Z,32.40
2018-12-13T21:18:02.658Z,36.33
2018-12-13T21:20:30.774Z,34.47
2018-12-13T21:22:59.160Z,38.93
2018-12-13T21:25:27.302Z,40.10
2018-12-13T21:27:55.387Z,33.93
2018-12-13T21:30:23.458Z,38.20
2018-12-13T21:32:51.570Z,33.50
2018-12-13T21:35:19.671Z,30.97
2018-12-13T21:37:47.766Z,34.83
2018-12-13T21:40:15.873Z,42.13
2018-12-13T21:42:44.468Z,36.60
2018-12-13T21:45:12.551Z,37.53
2018-12-13T21:47:40.608Z,35.03
2018-12-13T21:50:08.734Z,37.48
2018-12-13T21:52:36.858Z,33.33
2018-12-13T21:55:05.392Z,35.25
2018-12-13T21:57:33.469Z,38.45
2018-12-13T22:00:01.579Z,37.03
2018-12-13T22:02:29.682Z,36.70
2018-12-13T22:04:57.828Z,38.95
2018-12-13T22:07:25.916Z,37.90
2018-12-13T22:09:54.025Z,33.53
2018-12-13T22:12:22.173Z,29.25
2018-12-13T22:14:50.278Z,31.70
2018-12-13T22:17:18.352Z,23.70
2018-12-13T22:19:46.523Z,23.50
2018-12-13T22:22:14.530Z,26.27
2018-12-13T22:24:42.801Z,22.98
2018-12-13T22:27:10.972Z,22.60
2018-12-13T22:29:39.053Z,23.85
2018-12-13T22:32:07.170Z,25.20
2018-12-13T22:34:35.490Z,28.95
2018-12-13T22:37:03.798Z,27.62
2018-12-13T22:39:31.907Z,27.82
2018-12-13T22:41:59.967Z,28.40
2018-12-13T22:44:28.249Z,30.25
2018-12-13T22:46:56.495Z,35.35
2018-12-13T22:49:24.748Z,35.33
2018-12-13T22:51:52.803Z,34.98
2018-12-13T22:54:20.862Z,36.33
2018-12-13T22:56:49.001Z,37.85
2018-12-13T22:59:17.104Z,40.88
2018-12-13T23:01:45.147Z,38.80
2018-12-13T23:04:13.294Z,47.23
2018-12-13T23:06:41.359Z,39.75
2018-12-13T23:09:09.454Z,42.65
2018-12-13T23:11:37.540Z,44.42
2018-12-13T23:14:05.643Z,46.53
2018-12-13T23:16:33.819Z,45.20
2018-12-13T23:19:01.907Z,44.40
2018-12-13T23:21:29.967Z,41.73
2018-12-13T23:23:57.981Z,41.48
2018-12-13T23:26:26.122Z,43.48
2018-12-13T23:28:54.221Z,44.85
2018-12-13T23:31:22.342Z,45.85
2018-12-13T23:33:50.371Z,48.38
2018-12-13T23:36:18.409Z,45.25
2018-12-13T23:38:46.585Z,42.55
2018-12-13T23:41:14.742Z,45.83
2018-12-13T23:43:42.790Z,47.10
2018-12-13T23:46:10.858Z,43.68
2018-12-13T23:48:38.956Z,46.08
2018-12-13T23:51:07.039Z,44.90
2018-12-13T23:53:35.401Z,44.90
2018-12-13T23:56:03.618Z,48.30
2018-12-13T23:58:31.986Z,52.40
